createdAt,value
2022-11-25T00:00:22.598Z,101253.91
2022-11-25T00:05:26.742Z,101254.84
2022-11-25T00:10:30.947Z,101254.97
2022-11-25T00:15:35.214Z,101239.59
2022-11-25T00:20:39.213Z,101237.09
2022-11-25T00:25:43.490Z,101247.41
2022-11-25T00:30:46.297Z,101241.66
2022-11-25T00:35:49.333Z,101251.41
2022-11-25T00:41:16.097Z,101240.44
2022-11-25T00:46:19.074Z,101243.06
2022-11-25T00:51:22.077Z,101227.56
2022-11-25T00:56:26.294Z,101239.34
2022-11-25T01:01:29.364Z,101240.22
2022-11-25T01:06:32.527Z,101242.19
2022-11-25T01:11:36.903Z,101232.28
2022-11-25T01:16:39.874Z,101237.38
2022-11-25T01:21:43.023Z,101235.56
2022-11-25T01:26:47.819Z,101225.13
2022-11-25T01:31:51.712Z,101237.91
2022-11-25T01:36:54.601Z,101228.50
2022-11-25T01:41:59.372Z,101223.06
2022-11-25T01:47:06.920Z,101228.00
2022-11-25T01:52:17.119Z,101234.00
2022-11-25T01:57:27.898Z,101242.06
2022-11-25T02:02:32.542Z,101243.41
2022-11-25T02:07:37.757Z,101242.75
2022-11-25T02:12:45.572Z,101250.41
2022-11-25T02:17:48.585Z,101253.28
2022-11-25T02:22:58.330Z,101243.00
2022-11-25T02:28:06.971Z,101234.13
2022-11-25T02:33:10.350Z,101246.91
2022-11-25T02:38:17.340Z,101261.13
2022-11-25T02:43:22.543Z,101255.91
2022-11-25T02:48:45.864Z,101262.91
2022-11-25T02:53:49.877Z,101252.34
2022-11-25T02:58:54.491Z,101245.47
2022-11-25T03:03:57.356Z,101254.56
2022-11-25T03:09:00.412Z,101249.88
2022-11-25T03:14:04.526Z,101250.16
2022-11-25T03:19:08.474Z,101241.66
2022-11-25T03:24:11.205Z,101245.06
2022-11-25T03:29:15.286Z,101242.59
2022-11-25T03:34:18.048Z,101243.34
2022-11-25T03:39:20.796Z,101246.50
2022-11-25T03:44:24.880Z,101249.50
2022-11-25T03:49:27.621Z,101247.41
2022-11-25T03:54:30.596Z,101236.84
2022-11-25T03:59:34.704Z,101244.91
2022-11-25T04:04:37.748Z,101245.84
2022-11-25T04:09:40.673Z,101247.00
2022-11-25T04:14:44.836Z,101256.53
2022-11-25T04:19:47.585Z,101256.16
2022-11-25T04:24:50.582Z,101263.03
2022-11-25T04:29:54.677Z,101252.09
2022-11-25T04:34:57.404Z,101254.72
2022-11-25T04:40:00.189Z,101254.47
2022-11-25T04:45:22.399Z,101260.19
2022-11-25T04:50:26.175Z,101260.72
2022-11-25T04:55:29.104Z,101262.03
2022-11-25T05:00:33.263Z,101274.13
2022-11-25T05:05:36.001Z,101276.47
2022-11-25T05:10:38.737Z,101278.03
2022-11-25T05:15:44.234Z,101268.13
2022-11-25T05:20:47.028Z,101273.84
2022-11-25T05:25:49.747Z,101275.19
2022-11-25T05:30:53.899Z,101276.31
2022-11-25T05:35:58.478Z,101292.28
2022-11-25T05:41:03.284Z,101284.44
2022-11-25T05:46:08.885Z,101284.66
2022-11-25T05:51:11.732Z,101281.72
2022-11-25T05:56:14.484Z,101285.81
2022-11-25T06:01:18.724Z,101289.41
2022-11-25T06:06:22.075Z,101289.13
2022-11-25T06:11:25.537Z,101293.41
2022-11-25T06:16:29.704Z,101306.31
2022-11-25T06:21:32.528Z,101308.50
2022-11-25T06:26:35.281Z,101304.59
2022-11-25T06:31:39.655Z,101314.31
2022-11-25T06:36:42.510Z,101313.16
2022-11-25T06:41:45.444Z,101318.22
2022-11-25T06:46:49.578Z,101325.59
2022-11-25T06:51:52.360Z,101327.19
2022-11-25T06:56:55.109Z,101325.00
2022-11-25T07:01:59.319Z,101336.47
2022-11-25T07:07:02.118Z,101338.78
2022-11-25T07:12:05.789Z,101334.72
2022-11-25T07:17:12.258Z,101341.59
2022-11-25T07:22:15.208Z,101343.41
2022-11-25T07:27:17.955Z,101349.81
2022-11-25T07:32:22.644Z,101355.72
2022-11-25T07:37:25.433Z,101354.72
2022-11-25T07:42:28.168Z,101349.59
2022-11-25T07:47:34.871Z,101353.75
2022-11-25T07:52:40.068Z,101360.91
2022-11-25T07:57:42.829Z,101354.94
2022-11-25T08:02:46.961Z,101354.19
2022-11-25T08:07:49.807Z,101365.25
2022-11-25T08:12:52.542Z,101365.31
2022-11-25T08:17:56.642Z,101361.38
2022-11-25T08:22:59.365Z,101366.75
2022-11-25T08:28:02.230Z,101373.81
2022-11-25T08:33:07.410Z,101367.88
2022-11-25T08:38:12.364Z,101365.09
2022-11-25T08:43:15.244Z,101364.56
2022-11-25T08:48:21.498Z,101366.41
2022-11-25T08:53:24.235Z,101366.03
2022-11-25T08:58:27.058Z,101364.25
2022-11-25T09:03:33.453Z,101368.22
2022-11-25T09:08:37.598Z,101363.34
2022-11-25T09:13:40.723Z,101371.19
2022-11-25T09:18:48.903Z,101372.00
2022-11-25T09:23:55.928Z,101367.84
2022-11-25T09:28:59.294Z,101370.19
2022-11-25T09:34:03.397Z,101370.88
2022-11-25T09:39:06.278Z,101372.72
2022-11-25T09:44:38.841Z,101375.34
2022-11-25T09:50:01.101Z,101381.50
2022-11-25T09:55:07.779Z,101387.88
2022-11-25T10:00:14.549Z,101380.06
2022-11-25T10:05:24.574Z,101377.09
2022-11-25T10:10:30.924Z,101369.56
2022-11-25T10:15:40.714Z,101365.75
2022-11-25T10:20:48.403Z,101366.00
2022-11-25T10:25:56.721Z,101367.97
2022-11-25T10:31:05.592Z,101359.78
2022-11-25T10:36:16.569Z,101360.41
2022-11-25T10:41:24.363Z,101360.53
2022-11-25T10:47:11.217Z,101359.50
2022-11-25T10:52:01.119Z,101348.31
2022-11-25T10:57:05.802Z,101345.03
2022-11-25T11:02:19.146Z,101352.72
2022-11-25T11:07:24.225Z,101344.75
2022-11-25T11:12:28.480Z,101344.63
2022-11-25T11:17:36.793Z,101345.00
2022-11-25T11:22:55.787Z,101350.06
2022-11-25T11:27:59.768Z,101353.13
2022-11-25T11:33:05.657Z,101366.69
2022-11-25T11:38:30.241Z,101369.91
2022-11-25T11:43:47.603Z,101367.19
2022-11-25T11:49:02.911Z,101359.00
2022-11-25T11:54:12.390Z,101353.97
2022-11-25T11:59:49.848Z,101367.00
2022-11-25T12:05:01.408Z,101367.94
2022-11-25T12:10:16.546Z,101377.38
2022-11-25T12:15:25.694Z,101378.84
2022-11-25T12:20:37.350Z,101370.22
2022-11-25T12:25:43.508Z,101368.56
2022-11-25T12:31:01.862Z,101360.69
2022-11-25T12:36:13.292Z,101366.25
2022-11-25T12:41:26.323Z,101366.19
2022-11-25T12:46:36.896Z,101356.28
2022-11-25T12:52:12.206Z,101361.63
2022-11-25T12:57:48.609Z,101364.88
2022-11-25T13:03:28.915Z,101357.78
2022-11-25T13:08:52.828Z,101363.47
2022-11-25T13:14:04.226Z,101359.22
2022-11-25T13:19:11.762Z,101355.13
2022-11-25T13:24:29.771Z,101366.28
2022-11-25T13:30:05.138Z,101371.16
2022-11-25T13:35:32.929Z,101385.47
2022-11-25T13:40:39.176Z,101379.81
2022-11-25T13:45:45.957Z,101391.59
2022-11-25T13:56:16.555Z,101399.56
2022-11-25T14:01:30.367Z,101396.22
2022-11-25T14:07:05.254Z,101402.03
2022-11-25T14:12:32.154Z,101401.03
2022-11-25T14:18:15.959Z,101405.19
2022-11-25T14:23:45.975Z,101402.97
2022-11-25T14:28:57.527Z,101406.00
2022-11-25T14:34:08.303Z,101408.41
2022-11-25T14:39:19.070Z,101414.72
2022-11-25T14:44:25.811Z,101421.66
2022-11-25T14:50:00.052Z,101418.38
2022-11-25T14:55:09.916Z,101427.66
2022-11-25T15:00:15.474Z,101433.03
2022-11-25T15:05:22.645Z,101441.59
2022-11-25T15:10:39.215Z,101452.34
2022-11-25T15:15:46.250Z,101451.09
2022-11-25T15:20:56.917Z,101449.50
2022-11-25T15:26:01.100Z,101461.50
2022-11-25T15:31:10.915Z,101455.00
2022-11-25T15:36:15.157Z,101467.22
2022-11-25T15:41:27.222Z,101465.63
2022-11-25T15:46:31.136Z,101471.31
2022-11-25T15:51:42.704Z,101468.47
2022-11-25T15:56:48.984Z,101470.88
2022-11-25T16:01:51.909Z,101474.06
2022-11-25T16:06:59.448Z,101479.06
2022-11-25T16:12:10.215Z,101492.06
2022-11-25T16:17:13.621Z,101498.66
2022-11-25T16:22:20.138Z,101501.38
2022-11-25T16:27:24.910Z,101507.88
2022-11-25T16:32:30.096Z,101507.56
2022-11-25T16:37:34.267Z,101510.72
2022-11-25T16:42:37.069Z,101520.03
2022-11-25T16:47:39.845Z,101511.72
2022-11-25T16:52:44.323Z,101513.19
2022-11-25T16:57:47.582Z,101521.03
2022-11-25T17:02:50.396Z,101519.78
2022-11-25T17:07:55.481Z,101531.38
2022-11-25T17:12:58.392Z,101540.00
2022-11-25T17:18:02.067Z,101539.91
2022-11-25T17:23:11.741Z,101532.75
2022-11-25T17:28:16.887Z,101544.78
2022-11-25T17:33:21.338Z,101554.34
2022-11-25T17:38:25.500Z,101560.38
2022-11-25T17:43:34.361Z,101561.03
2022-11-25T17:48:38.021Z,101569.44
2022-11-25T17:53:42.808Z,101566.81
2022-11-25T17:58:45.765Z,101572.06
2022-11-25T18:03:49.469Z,101575.22
2022-11-25T18:08:53.539Z,101587.91
2022-11-25T18:13:56.527Z,101601.94
2022-11-25T18:18:59.283Z,101595.53
2022-11-25T18:24:03.521Z,101604.97
2022-11-25T18:29:08.011Z,101604.75
2022-11-25T18:34:14.708Z,101605.63
2022-11-25T18:39:18.880Z,101609.16
2022-11-25T18:44:26.277Z,101615.19
2022-11-25T18:49:29.298Z,101615.88
2022-11-25T18:54:33.448Z,101628.03
2022-11-25T18:59:37.766Z,101621.88
2022-11-25T19:04:40.521Z,101629.59
2022-11-25T19:09:44.847Z,101636.44
2022-11-25T19:14:50.168Z,101633.81
2022-11-25T19:19:52.941Z,101640.72
2022-11-25T19:24:59.029Z,101649.50
2022-11-25T19:30:03.098Z,101651.31
2022-11-25T19:35:09.176Z,101664.41
2022-11-25T19:40:17.075Z,101659.97
2022-11-25T19:45:21.587Z,101675.56
2022-11-25T19:50:27.025Z,101688.53
2022-11-25T19:55:32.339Z,101697.91
2022-11-25T20:00:35.655Z,101706.44
2022-11-25T20:05:39.559Z,101708.78
2022-11-25T20:10:43.853Z,101715.38
2022-11-25T20:15:47.567Z,101720.88
2022-11-25T20:20:56.036Z,101721.16
2022-11-25T20:26:00.138Z,101736.59
2022-11-25T20:31:02.922Z,101745.59
2022-11-25T20:36:08.421Z,101746.91
2022-11-25T20:41:13.315Z,101760.25
2022-11-25T20:46:19.686Z,101758.19
2022-11-25T20:51:24.421Z,101758.97
2022-11-25T20:56:29.034Z,101764.72
2022-11-25T21:01:31.813Z,101771.94
2022-11-25T21:06:40.766Z,101767.88
2022-11-25T21:11:45.450Z,101770.72
2022-11-25T21:16:48.540Z,101773.22
2022-11-25T21:21:51.936Z,101776.59
2022-11-25T21:26:56.374Z,101783.66
2022-11-25T21:31:59.237Z,101789.56
2022-11-25T21:37:03.810Z,101790.72
2022-11-25T21:42:16.849Z,101797.16
2022-11-25T21:47:22.801Z,101794.66
2022-11-25T21:52:25.565Z,101796.47
2022-11-25T21:57:30.170Z,101809.81
2022-11-25T22:02:33.320Z,101801.28
2022-11-25T22:07:36.166Z,101803.66
2022-11-25T22:12:42.922Z,101803.53
2022-11-25T22:17:46.085Z,101815.06
2022-11-25T22:22:48.870Z,101816.09
2022-11-25T22:27:53.259Z,101824.19
2022-11-25T22:33:01.513Z,101823.53
2022-11-25T22:38:07.148Z,101824.97
2022-11-25T22:43:17.753Z,101835.56
2022-11-25T22:48:24.283Z,101846.00
2022-11-25T22:53:27.123Z,101849.56
2022-11-25T22:58:31.220Z,101857.41
2022-11-25T23:03:34.220Z,101853.59
2022-11-25T23:08:37.546Z,101868.00
2022-11-25T23:13:41.655Z,101867.06
2022-11-25T23:18:46.682Z,101867.34
2022-11-25T23:23:50.141Z,101867.34
2022-11-25T23:28:54.246Z,101877.94
2022-11-25T23:33:57.175Z,101865.78
2022-11-25T23:39:02.316Z,101878.59
2022-11-25T23:44:15.741Z,101892.69
2022-11-25T23:49:23.984Z,101889.44
2022-11-25T23:54:31.669Z,101882.25
2022-11-25T23:59:35.751Z,101899.00
